Time;durP1;ratioP1;P1;durP2;ratioP2;P2;SDS_P1;SDS_P2;PMS_P1;PMS_P2;Temp;Humidity;BMP_temperature;BMP_pressure;BME280_temperature;BME280_humidity;BME280_pressure;Samples;Min_cycle;Max_cycle;Signal;HPM_P1;HPM_P2
2023/03/02 00:02:14;;;;;;;48.25;30.52;;;;;;;;;;5014422;28;20440;-83
2023/03/02 00:04:44;;;;;;;49.17;31.20;;;;;;;;;;5013269;28;20486;-83
2023/03/02 00:07:12;;;;;;;47.55;31.13;;;;;;;;;;5014962;28;20501;-85
2023/03/02 00:09:40;;;;;;;48.10;31.30;;;;;;;;;;5015345;28;21086;-82
2023/03/02 00:12:07;;;;;;;47.72;30.17;;;;;;;;;;5017568;28;20447;-82
2023/03/02 00:14:33;;;;;;;49.37;31.77;;;;;;;;;;5014535;28;20437;-83
2023/03/02 00:17:01;;;;;;;49.65;31.10;;;;;;;;;;5016744;28;20436;-83
2023/03/02 00:19:27;;;;;;;50.53;32.20;;;;;;;;;;5012384;28;20825;-84
2023/03/02 00:21:55;;;;;;;50.65;31.90;;;;;;;;;;5015843;28;20439;-82
2023/03/02 00:24:21;;;;;;;66.75;31.30;;;;;;;;;;5015278;28;20447;-82
2023/03/02 00:26:48;;;;;;;56.63;33.13;;;;;;;;;;5014882;28;20432;-82
2023/03/02 00:29:14;;;;;;;56.95;32.17;;;;;;;;;;5016663;28;20440;-82
2023/03/02 00:31:40;;;;;;;56.33;34.50;;;;;;;;;;5017080;28;20821;-82
2023/03/02 00:34:07;;;;;;;55.27;33.10;;;;;;;;;;5017317;28;20486;-83
2023/03/02 00:36:33;;;;;;;58.22;34.05;;;;;;;;;;5016885;28;20449;-83
2023/03/02 00:39:02;;;;;;;63.25;35.72;;;;;;;;;;5016361;28;20433;-83
2023/03/02 00:41:28;;;;;;;64.05;33.50;;;;;;;;;;5018488;28;20483;-83
2023/03/02 00:43:55;;;;;;;57.42;33.55;;;;;;;;;;5018892;28;20431;-82
2023/03/02 00:46:22;;;;;;;60.50;33.88;;;;;;;;;;5012293;28;20918;-82
2023/03/02 00:48:49;;;;;;;57.08;34.35;;;;;;;;;;5013546;28;20458;-82
2023/03/02 00:51:16;;;;;;;60.57;33.80;;;;;;;;;;5013292;28;21106;-82
2023/03/02 00:53:43;;;;;;;67.65;34.47;;;;;;;;;;5010874;28;20502;-82
2023/03/02 00:56:10;;;;;;;67.43;34.35;;;;;;;;;;5010686;28;20430;-82
2023/03/02 00:58:37;;;;;;;70.00;34.83;;;;;;;;;;5010615;28;20447;-82
2023/03/02 01:01:05;;;;;;;64.40;34.80;;;;;;;;;;5013248;28;20434;-82
2023/03/02 01:03:32;;;;;;;63.92;35.65;;;;;;;;;;5012118;28;20433;-83
2023/03/02 01:05:59;;;;;;;75.80;34.55;;;;;;;;;;5013459;28;20429;-83
2023/03/02 01:08:26;;;;;;;67.95;36.45;;;;;;;;;;5014016;28;20433;-84
2023/03/02 01:10:52;;;;;;;65.97;35.17;;;;;;;;;;5013519;28;20449;-84
2023/03/02 01:13:20;;;;;;;62.40;34.53;;;;;;;;;;5010321;28;20420;-84
2023/03/02 01:15:46;;;;;;;67.97;34.13;;;;;;;;;;5015899;28;20437;-82
2023/03/02 01:18:13;;;;;;;65.47;35.00;;;;;;;;;;5011475;28;20416;-82
2023/03/02 01:20:39;;;;;;;80.55;34.67;;;;;;;;;;5014354;28;20515;-82
2023/03/02 01:23:06;;;;;;;65.25;34.33;;;;;;;;;;5014035;28;20413;-83
2023/03/02 01:25:32;;;;;;;57.72;32.60;;;;;;;;;;5011725;28;20430;-83
2023/03/02 01:27:58;;;;;;;74.90;33.67;;;;;;;;;;5012729;28;20421;-83
2023/03/02 01:30:26;;;;;;;66.47;33.55;;;;;;;;;;5014007;28;20443;-84
2023/03/02 01:32:52;;;;;;;59.85;33.17;;;;;;;;;;5013915;28;20790;-83
2023/03/02 01:35:18;;;;;;;52.80;32.42;;;;;;;;;;5016093;28;20429;-86
2023/03/02 01:37:45;;;;;;;73.10;33.30;;;;;;;;;;5014059;28;20440;-82
2023/03/02 01:40:12;;;;;;;66.55;31.60;;;;;;;;;;5012518;28;20465;-82
2023/03/02 01:42:40;;;;;;;68.95;32.60;;;;;;;;;;5014607;28;20432;-83
2023/03/02 01:45:21;;;;;;;61.70;32.53;;;;;;;;;;5013542;28;20445;-87
2023/03/02 01:47:50;;;;;;;55.65;30.05;;;;;;;;;;5015669;28;20413;-82
2023/03/02 01:50:19;;;;;;;57.80;31.70;;;;;;;;;;5013050;28;20452;-83
2023/03/02 01:52:46;;;;;;;55.78;31.65;;;;;;;;;;5016097;28;20420;-82
2023/03/02 01:55:13;;;;;;;51.42;30.42;;;;;;;;;;5016027;28;20432;-82
2023/03/02 01:57:43;;;;;;;46.92;28.25;;;;;;;;;;5015910;28;20446;-84
2023/03/02 02:00:11;;;;;;;49.40;27.73;;;;;;;;;;5013522;28;20446;-86
2023/03/02 02:02:40;;;;;;;47.58;27.38;;;;;;;;;;5011410;28;20516;-82
2023/03/02 02:05:09;;;;;;;47.33;27.40;;;;;;;;;;5011384;28;20432;-82
2023/03/02 02:07:36;;;;;;;46.10;26.60;;;;;;;;;;5011250;28;20447;-82
2023/03/02 02:10:04;;;;;;;42.00;25.75;;;;;;;;;;5011034;28;20440;-83
2023/03/02 02:12:32;;;;;;;46.10;26.77;;;;;;;;;;5011131;28;20509;-82
2023/03/02 02:15:00;;;;;;;47.25;28.27;;;;;;;;;;5013661;28;20443;-82
2023/03/02 02:17:28;;;;;;;42.92;26.70;;;;;;;;;;5009696;28;20437;-82
2023/03/02 02:19:58;;;;;;;47.55;25.65;;;;;;;;;;5010023;28;20441;-87
2023/03/02 02:22:33;;;;;;;42.42;27.40;;;;;;;;;;5013092;28;20434;-82
2023/03/02 02:25:03;;;;;;;45.60;27.00;;;;;;;;;;5012399;28;20441;-83
2023/03/02 02:27:32;;;;;;;46.97;25.77;;;;;;;;;;5014510;28;20448;-83
2023/03/02 02:30:01;;;;;;;41.72;26.05;;;;;;;;;;5050861;23;20466;-81
2023/03/02 02:32:29;;;;;;;49.78;25.70;;;;;;;;;;5036246;28;21013;-83
2023/03/02 02:34:58;;;;;;;47.55;26.20;;;;;;;;;;5031463;28;20435;-79
2023/03/02 02:37:27;;;;;;;46.85;26.13;;;;;;;;;;5024760;28;20431;-82
2023/03/02 02:39:55;;;;;;;50.30;26.70;;;;;;;;;;5050549;28;20436;-81
2023/03/02 02:42:25;;;;;;;43.00;25.13;;;;;;;;;;5056793;28;20431;-80
2023/03/02 02:44:55;;;;;;;47.42;24.48;;;;;;;;;;5056652;28;20775;-80
2023/03/02 02:47:22;;;;;;;43.65;24.25;;;;;;;;;;5054817;28;20918;-80
2023/03/02 02:49:49;;;;;;;47.75;25.83;;;;;;;;;;5053832;28;20428;-79
2023/03/02 02:52:17;;;;;;;48.10;25.25;;;;;;;;;;5052798;28;20428;-79
2023/03/02 02:54:46;;;;;;;53.23;26.17;;;;;;;;;;5057955;28;20429;-80
2023/03/02 02:57:16;;;;;;;46.72;25.42;;;;;;;;;;5056419;28;20439;-80
2023/03/02 02:59:44;;;;;;;56.65;26.80;;;;;;;;;;5050483;28;20426;-80
2023/03/02 03:02:15;;;;;;;50.25;24.95;;;;;;;;;;5053432;28;20423;-82
2023/03/02 03:04:41;;;;;;;42.53;24.40;;;;;;;;;;5058556;28;20433;-80
2023/03/02 03:07:11;;;;;;;46.20;26.15;;;;;;;;;;5053749;28;20425;-80
2023/03/02 03:09:37;;;;;;;45.03;26.05;;;;;;;;;;5057141;28;20433;-80
2023/03/02 03:12:07;;;;;;;52.10;26.87;;;;;;;;;;5059116;28;20808;-81
2023/03/02 03:14:34;;;;;;;60.20;28.40;;;;;;;;;;5060707;28;20439;-81
2023/03/02 03:17:00;;;;;;;44.90;25.75;;;;;;;;;;5059944;28;20442;-81
2023/03/02 03:19:29;;;;;;;46.72;25.50;;;;;;;;;;5057907;28;20444;-82
2023/03/02 03:21:57;;;;;;;71.80;27.10;;;;;;;;;;5046770;28;20433;-79
2023/03/02 03:24:25;;;;;;;45.92;26.25;;;;;;;;;;5055326;28;20416;-79
2023/03/02 03:26:53;;;;;;;52.65;27.50;;;;;;;;;;5058138;28;20429;-81
2023/03/02 03:29:23;;;;;;;45.25;26.02;;;;;;;;;;5059418;28;20832;-79
2023/03/02 03:31:49;;;;;;;55.80;26.52;;;;;;;;;;5061738;28;20423;-81
2023/03/02 03:34:16;;;;;;;41.00;24.70;;;;;;;;;;5060068;28;20478;-81
2023/03/02 03:36:46;;;;;;;38.85;22.75;;;;;;;;;;5059123;28;20425;-81
2023/03/02 03:39:13;;;;;;;41.38;23.40;;;;;;;;;;5057572;28;20592;-80
2023/03/02 03:41:39;;;;;;;50.35;25.17;;;;;;;;;;5055889;28;20448;-82
2023/03/02 03:44:06;;;;;;;44.25;24.50;;;;;;;;;;5061049;28;20419;-82
2023/03/02 03:46:33;;;;;;;49.20;24.63;;;;;;;;;;5059657;28;20419;-82
2023/03/02 03:48:59;;;;;;;41.80;22.98;;;;;;;;;;5056846;28;20673;-82
2023/03/02 03:51:26;;;;;;;52.97;23.98;;;;;;;;;;5060392;28;20928;-81
2023/03/02 03:53:59;;;;;;;42.20;22.10;;;;;;;;;;5059733;28;20439;-79
2023/03/02 03:56:26;;;;;;;39.22;23.23;;;;;;;;;;5058378;28;20433;-81
2023/03/02 03:59:05;;;;;;;53.37;25.23;;;;;;;;;;5057852;28;20429;-81
2023/03/02 04:01:33;;;;;;;46.05;25.33;;;;;;;;;;5057850;28;20425;-81
2023/03/02 04:04:00;;;;;;;62.75;25.33;;;;;;;;;;5059195;28;20413;-81
2023/03/02 04:06:27;;;;;;;50.80;24.27;;;;;;;;;;5055159;28;20433;-81
2023/03/02 04:08:55;;;;;;;44.50;24.17;;;;;;;;;;5057845;28;20434;-81
2023/03/02 04:11:21;;;;;;;44.57;24.70;;;;;;;;;;5063211;28;20448;-81
2023/03/02 04:13:48;;;;;;;40.22;22.77;;;;;;;;;;5062397;28;20419;-81
2023/03/02 04:16:14;;;;;;;45.60;23.50;;;;;;;;;;5056476;28;21089;-81
2023/03/02 04:18:43;;;;;;;44.60;23.98;;;;;;;;;;5057694;28;20416;-81
2023/03/02 04:21:09;;;;;;;44.25;23.88;;;;;;;;;;5056682;28;20444;-81
2023/03/02 04:23:36;;;;;;;38.83;23.73;;;;;;;;;;5058623;28;20429;-82
2023/03/02 04:26:04;;;;;;;43.90;23.90;;;;;;;;;;5059933;28;20435;-82
2023/03/02 04:28:30;;;;;;;37.53;23.17;;;;;;;;;;5057702;28;20429;-81
2023/03/02 04:30:56;;;;;;;42.08;21.80;;;;;;;;;;5057472;28;20427;-81
2023/03/02 04:33:23;;;;;;;48.22;22.65;;;;;;;;;;5057371;28;20419;-81
2023/03/02 04:35:49;;;;;;;36.90;21.58;;;;;;;;;;5057782;28;20429;-81
2023/03/02 04:38:17;;;;;;;38.85;23.88;;;;;;;;;;5060861;28;20421;-80
2023/03/02 04:40:44;;;;;;;39.50;24.23;;;;;;;;;;5057049;28;20434;-81
2023/03/02 04:43:12;;;;;;;45.80;25.20;;;;;;;;;;5056398;28;20424;-81
2023/03/02 04:45:38;;;;;;;48.13;24.20;;;;;;;;;;5058437;28;20432;-82
2023/03/02 04:48:06;;;;;;;42.88;23.50;;;;;;;;;;5062000;28;20413;-80
2023/03/02 04:50:32;;;;;;;41.47;24.42;;;;;;;;;;5059525;28;20417;-80
2023/03/02 04:52:59;;;;;;;43.67;24.48;;;;;;;;;;5063023;28;20414;-80
2023/03/02 04:55:26;;;;;;;36.05;21.65;;;;;;;;;;5060748;28;20425;-81
2023/03/02 04:57:53;;;;;;;33.53;20.50;;;;;;;;;;5058230;28;20937;-80
2023/03/02 05:00:21;;;;;;;33.72;20.02;;;;;;;;;;5038471;28;20794;-79
2023/03/02 05:02:48;;;;;;;32.72;19.75;;;;;;;;;;5059218;28;20919;-81
2023/03/02 05:05:16;;;;;;;33.15;20.13;;;;;;;;;;5057574;28;20437;-81
2023/03/02 05:07:43;;;;;;;38.00;21.70;;;;;;;;;;5057982;28;20443;-81
2023/03/02 05:10:10;;;;;;;40.60;21.00;;;;;;;;;;5056914;28;20567;-81
2023/03/02 05:12:56;;;;;;;43.30;22.48;;;;;;;;;;5057070;28;20448;-81
2023/03/02 05:15:25;;;;;;;36.28;20.90;;;;;;;;;;5057794;28;21053;-80
2023/03/02 05:17:52;;;;;;;36.25;20.63;;;;;;;;;;5059531;28;20410;-81
2023/03/02 05:20:19;;;;;;;34.05;20.88;;;;;;;;;;5055260;28;20433;-81
2023/03/02 05:22:45;;;;;;;33.28;19.02;;;;;;;;;;5056660;28;20839;-81
2023/03/02 05:25:12;;;;;;;37.40;18.55;;;;;;;;;;5050515;28;20437;-82
2023/03/02 05:27:39;;;;;;;36.47;19.30;;;;;;;;;;5053843;28;20873;-81
2023/03/02 05:30:07;;;;;;;41.55;19.45;;;;;;;;;;5057177;28;20935;-81
2023/03/02 05:32:34;;;;;;;38.97;20.00;;;;;;;;;;5056463;28;20516;-81
2023/03/02 05:35:01;;;;;;;39.65;20.00;;;;;;;;;;5059068;28;20454;-81
2023/03/02 05:37:27;;;;;;;58.65;22.67;;;;;;;;;;5054571;28;20802;-81
2023/03/02 05:39:53;;;;;;;35.60;19.70;;;;;;;;;;5056346;28;20441;-82
2023/03/02 05:42:20;;;;;;;40.60;21.30;;;;;;;;;;5054680;28;20433;-81
2023/03/02 05:44:46;;;;;;;42.30;21.27;;;;;;;;;;5051007;28;20484;-81
2023/03/02 05:47:12;;;;;;;47.78;21.70;;;;;;;;;;5050253;28;20436;-81
2023/03/02 05:49:40;;;;;;;36.60;21.67;;;;;;;;;;5058246;28;20910;-81
2023/03/02 05:52:07;;;;;;;40.42;22.17;;;;;;;;;;5058339;28;20423;-81
2023/03/02 05:54:33;;;;;;;39.47;23.10;;;;;;;;;;5057452;28;20799;-81
2023/03/02 05:56:59;;;;;;;45.90;22.60;;;;;;;;;;5059567;28;20434;-81
2023/03/02 05:59:26;;;;;;;40.95;20.20;;;;;;;;;;5056181;28;20452;-81
2023/03/02 06:01:57;;;;;;;45.95;21.05;;;;;;;;;;5060164;28;20411;-80
2023/03/02 06:04:24;;;;;;;38.30;20.65;;;;;;;;;;5058675;28;20470;-81
2023/03/02 06:06:53;;;;;;;36.53;18.50;;;;;;;;;;5060271;28;20411;-82
2023/03/02 06:09:19;;;;;;;43.83;20.63;;;;;;;;;;5033910;28;21021;-81
2023/03/02 06:11:45;;;;;;;37.83;20.65;;;;;;;;;;5058937;28;20929;-79
2023/03/02 06:14:12;;;;;;;38.63;20.13;;;;;;;;;;5040825;28;20423;-81
2023/03/02 06:16:38;;;;;;;40.05;20.23;;;;;;;;;;5057239;28;20425;-81
2023/03/02 06:19:05;;;;;;;39.38;18.67;;;;;;;;;;5052503;28;20850;-81
2023/03/02 06:21:31;;;;;;;37.05;21.00;;;;;;;;;;5054698;28;20441;-82
2023/03/02 06:23:59;;;;;;;38.47;19.73;;;;;;;;;;5055268;28;20431;-79
2023/03/02 06:26:25;;;;;;;40.20;19.23;;;;;;;;;;5057793;28;20448;-79
2023/03/02 06:28:52;;;;;;;36.00;18.73;;;;;;;;;;5057089;28;20424;-79
2023/03/02 06:31:18;;;;;;;36.00;19.85;;;;;;;;;;5053621;28;20431;-81
2023/03/02 06:33:44;;;;;;;37.78;19.83;;;;;;;;;;5051217;28;20426;-79
2023/03/02 06:36:11;;;;;;;31.52;19.08;;;;;;;;;;5055874;28;20449;-81
2023/03/02 06:38:37;;;;;;;44.75;21.05;;;;;;;;;;5055729;28;20439;-80
2023/03/02 06:41:05;;;;;;;46.00;21.00;;;;;;;;;;5054867;28;20429;-80
2023/03/02 06:43:32;;;;;;;38.28;20.10;;;;;;;;;;5053212;28;20917;-81
2023/03/02 06:45:59;;;;;;;35.67;20.50;;;;;;;;;;5055813;28;20423;-80
2023/03/02 06:48:25;;;;;;;42.25;21.95;;;;;;;;;;5048937;28;20483;-82
2023/03/02 06:50:52;;;;;;;34.88;20.20;;;;;;;;;;5058765;28;20420;-81
2023/03/02 06:53:19;;;;;;;46.55;20.58;;;;;;;;;;5058257;28;20429;-81
2023/03/02 06:55:47;;;;;;;34.03;19.67;;;;;;;;;;5048580;28;20440;-80
2023/03/02 06:58:14;;;;;;;48.28;19.75;;;;;;;;;;5047443;28;20797;-78
2023/03/02 07:00:41;;;;;;;37.28;20.50;;;;;;;;;;5055748;28;20408;-79
2023/03/02 07:03:08;;;;;;;41.50;21.70;;;;;;;;;;5054167;28;20436;-84
2023/03/02 07:05:35;;;;;;;34.47;19.30;;;;;;;;;;5050996;28;20426;-80
2023/03/02 07:08:02;;;;;;;38.55;21.00;;;;;;;;;;5059860;28;20828;-80
2023/03/02 07:10:28;;;;;;;38.00;19.63;;;;;;;;;;5057818;28;20911;-80
2023/03/02 07:12:54;;;;;;;45.25;21.67;;;;;;;;;;5053901;28;20431;-80
2023/03/02 07:15:22;;;;;;;43.20;21.30;;;;;;;;;;5050942;28;20437;-80
2023/03/02 07:17:49;;;;;;;42.17;20.47;;;;;;;;;;5057242;28;20427;-80
2023/03/02 07:20:16;;;;;;;35.90;20.95;;;;;;;;;;5050282;28;20428;-80
2023/03/02 07:22:42;;;;;;;37.75;19.52;;;;;;;;;;5057438;28;20424;-82
2023/03/02 07:25:09;;;;;;;36.30;20.55;;;;;;;;;;5055832;28;20425;-79
2023/03/02 07:27:36;;;;;;;37.80;20.15;;;;;;;;;;5054224;28;20452;-81
2023/03/02 07:30:02;;;;;;;41.92;19.25;;;;;;;;;;5054372;28;20417;-79
2023/03/02 07:32:30;;;;;;;35.03;19.05;;;;;;;;;;5057146;28;20439;-80
2023/03/02 07:34:57;;;;;;;28.67;17.10;;;;;;;;;;5055002;28;20425;-81
2023/03/02 07:37:23;;;;;;;29.65;17.58;;;;;;;;;;5052979;28;20415;-81
2023/03/02 07:39:50;;;;;;;29.95;16.02;;;;;;;;;;5055255;28;20435;-80
2023/03/02 07:42:16;;;;;;;30.10;14.90;;;;;;;;;;5055607;28;20443;-81
2023/03/02 07:44:43;;;;;;;25.27;13.90;;;;;;;;;;5052340;28;20428;-81
2023/03/02 07:47:09;;;;;;;28.60;14.90;;;;;;;;;;5057750;28;20422;-81
2023/03/02 07:49:37;;;;;;;27.40;15.00;;;;;;;;;;5051952;28;20453;-82
2023/03/02 07:52:05;;;;;;;26.88;15.25;;;;;;;;;;5052989;28;20427;-81
2023/03/02 07:54:32;;;;;;;28.38;16.83;;;;;;;;;;5055669;28;20914;-80
2023/03/02 07:56:59;;;;;;;28.80;15.50;;;;;;;;;;5061164;28;20427;-81
2023/03/02 07:59:27;;;;;;;28.38;15.88;;;;;;;;;;5052119;28;20430;-81
2023/03/02 08:01:54;;;;;;;27.48;16.55;;;;;;;;;;5055962;28;20919;-81
2023/03/02 08:04:20;;;;;;;33.00;16.35;;;;;;;;;;5058013;28;20434;-81
2023/03/02 08:06:48;;;;;;;34.23;17.30;;;;;;;;;;5058632;28;20465;-81
2023/03/02 08:09:15;;;;;;;32.05;18.35;;;;;;;;;;5056028;28;20429;-81
2023/03/02 08:11:41;;;;;;;32.85;17.65;;;;;;;;;;5054180;28;20431;-81
2023/03/02 08:14:08;;;;;;;35.50;17.97;;;;;;;;;;5040476;28;20524;-83
2023/03/02 08:16:34;;;;;;;27.13;16.10;;;;;;;;;;5058897;28;20816;-81
2023/03/02 08:19:01;;;;;;;27.15;16.38;;;;;;;;;;5054126;28;20417;-80
2023/03/02 08:21:28;;;;;;;25.23;15.98;;;;;;;;;;5054291;28;20957;-81
2023/03/02 08:23:55;;;;;;;32.58;16.17;;;;;;;;;;5060127;28;20908;-80
2023/03/02 08:26:22;;;;;;;28.98;16.63;;;;;;;;;;5056362;28;20433;-82
2023/03/02 08:28:49;;;;;;;30.60;17.43;;;;;;;;;;5053362;28;20415;-82
2023/03/02 08:31:15;;;;;;;28.40;16.52;;;;;;;;;;5058852;28;20427;-80
2023/03/02 08:33:44;;;;;;;31.35;16.20;;;;;;;;;;5055105;28;20424;-81
2023/03/02 08:36:12;;;;;;;29.00;16.70;;;;;;;;;;5053538;28;20429;-81
2023/03/02 08:38:39;;;;;;;27.05;16.23;;;;;;;;;;5057135;28;20434;-81
2023/03/02 08:41:08;;;;;;;29.83;15.40;;;;;;;;;;5057999;28;20437;-82
2023/03/02 08:43:35;;;;;;;27.75;15.32;;;;;;;;;;5057947;28;20452;-81
2023/03/02 08:46:02;;;;;;;30.02;15.88;;;;;;;;;;5061832;28;20421;-81
2023/03/02 08:48:29;;;;;;;24.30;16.02;;;;;;;;;;5056465;28;20429;-82
2023/03/02 08:50:58;;;;;;;28.75;15.90;;;;;;;;;;5058523;28;20433;-80
2023/03/02 08:53:25;;;;;;;26.10;15.32;;;;;;;;;;5057339;28;20436;-82
2023/03/02 08:55:51;;;;;;;23.67;14.68;;;;;;;;;;5056967;28;20423;-81
2023/03/02 08:58:19;;;;;;;28.10;16.65;;;;;;;;;;5056737;28;20485;-80
2023/03/02 09:00:46;;;;;;;26.13;14.25;;;;;;;;;;5055405;28;20415;-82
2023/03/02 09:03:14;;;;;;;29.00;16.17;;;;;;;;;;5058953;28;20805;-82
2023/03/02 09:05:40;;;;;;;25.45;14.63;;;;;;;;;;5057544;28;20425;-79
2023/03/02 09:08:07;;;;;;;26.73;14.65;;;;;;;;;;5043466;28;20466;-82
2023/03/02 09:10:33;;;;;;;22.02;14.18;;;;;;;;;;5057506;28;20816;-82
2023/03/02 09:13:00;;;;;;;28.17;15.70;;;;;;;;;;5058599;28;20429;-79
2023/03/02 09:15:28;;;;;;;28.50;15.88;;;;;;;;;;5055135;28;20446;-79
2023/03/02 09:17:54;;;;;;;37.42;16.20;;;;;;;;;;5060538;28;20423;-80
2023/03/02 09:20:21;;;;;;;34.88;15.90;;;;;;;;;;5056705;28;20423;-79
2023/03/02 09:22:49;;;;;;;34.47;17.25;;;;;;;;;;5054862;28;20435;-81
2023/03/02 09:25:16;;;;;;;36.88;17.35;;;;;;;;;;5056602;28;20450;-81
2023/03/02 09:27:42;;;;;;;29.75;17.10;;;;;;;;;;5057451;28;20439;-82
2023/03/02 09:30:09;;;;;;;32.33;16.52;;;;;;;;;;5056414;28;20431;-82
2023/03/02 09:32:37;;;;;;;32.53;18.70;;;;;;;;;;5058550;28;20935;-81
2023/03/02 09:35:04;;;;;;;27.77;16.70;;;;;;;;;;5057243;28;20433;-80
2023/03/02 09:37:30;;;;;;;29.00;15.45;;;;;;;;;;5050126;28;20444;-80
2023/03/02 09:39:57;;;;;;;29.80;17.33;;;;;;;;;;5053508;28;20425;-79
2023/03/02 09:42:32;;;;;;;27.40;15.43;;;;;;;;;;5059043;28;21116;-79
2023/03/02 09:45:13;;;;;;;26.42;15.85;;;;;;;;;;5054072;28;20431;-81
2023/03/02 09:47:47;;;;;;;24.73;14.88;;;;;;;;;;5056391;28;20427;-82
2023/03/02 09:50:21;;;;;;;22.48;15.00;;;;;;;;;;5054084;28;20421;-81
2023/03/02 09:52:51;;;;;;;31.80;14.83;;;;;;;;;;5057636;28;20427;-81
2023/03/02 09:55:18;;;;;;;29.10;15.00;;;;;;;;;;5057553;28;20518;-82
2023/03/02 09:57:45;;;;;;;26.90;15.40;;;;;;;;;;5060369;28;20435;-81
2023/03/02 10:00:14;;;;;;;26.30;15.93;;;;;;;;;;5039411;28;20464;-81
2023/03/02 10:02:46;;;;;;;29.92;16.83;;;;;;;;;;5048661;28;20918;-81
2023/03/02 10:05:15;;;;;;;25.48;15.10;;;;;;;;;;5055816;28;20435;-81
2023/03/02 10:07:42;;;;;;;27.48;15.35;;;;;;;;;;5056406;28;20436;-81
2023/03/02 10:10:23;;;;;;;28.70;15.30;;;;;;;;;;5058240;28;20425;-81
2023/03/02 10:12:58;;;;;;;27.30;15.88;;;;;;;;;;5057099;28;20438;-81
2023/03/02 10:15:28;;;;;;;24.15;14.52;;;;;;;;;;5055871;28;20479;-82
2023/03/02 10:18:00;;;;;;;26.33;15.60;;;;;;;;;;5053730;28;20480;-80
2023/03/02 10:20:28;;;;;;;26.60;16.25;;;;;;;;;;5052749;28;20431;-82
2023/03/02 10:22:57;;;;;;;26.70;16.83;;;;;;;;;;5055175;28;20503;-79
2023/03/02 10:25:30;;;;;;;24.17;15.60;;;;;;;;;;5057943;28;20427;-80
2023/03/02 10:27:57;;;;;;;25.88;15.93;;;;;;;;;;5059831;28;20424;-81
2023/03/02 10:30:29;;;;;;;26.45;15.90;;;;;;;;;;5054065;28;20440;-79
2023/03/02 10:32:57;;;;;;;25.95;15.70;;;;;;;;;;5054725;28;20436;-79
2023/03/02 10:35:27;;;;;;;23.60;15.63;;;;;;;;;;5053725;28;20478;-80
2023/03/02 10:37:57;;;;;;;25.10;15.82;;;;;;;;;;5052372;28;20945;-78
2023/03/02 10:40:30;;;;;;;27.20;16.73;;;;;;;;;;5056725;28;20428;-79
2023/03/02 10:42:57;;;;;;;27.48;16.50;;;;;;;;;;5056517;28;20444;-80
2023/03/02 10:45:26;;;;;;;26.30;16.45;;;;;;;;;;5055014;28;20425;-82
2023/03/02 10:47:59;;;;;;;27.63;17.33;;;;;;;;;;5056860;28;20432;-80
2023/03/02 10:50:29;;;;;;;26.58;16.38;;;;;;;;;;5054242;28;20798;-80
2023/03/02 10:52:55;;;;;;;26.58;16.48;;;;;;;;;;5057824;28;20480;-82
2023/03/02 10:55:22;;;;;;;25.95;15.80;;;;;;;;;;5052602;28;20423;-82
2023/03/02 10:57:58;;;;;;;26.73;17.25;;;;;;;;;;5058529;28;20928;-82
2023/03/02 11:00:26;;;;;;;29.48;17.88;;;;;;;;;;5049552;28;20434;-81
2023/03/02 11:02:53;;;;;;;30.30;18.20;;;;;;;;;;5056619;28;20429;-82
2023/03/02 11:05:26;;;;;;;25.85;17.10;;;;;;;;;;5055981;28;20837;-81
2023/03/02 11:07:54;;;;;;;23.15;15.43;;;;;;;;;;5055327;28;20873;-81
2023/03/02 11:10:23;;;;;;;30.92;18.63;;;;;;;;;;5054130;28;20437;-82
2023/03/02 11:12:50;;;;;;;26.23;17.10;;;;;;;;;;5057462;28;20952;-79
2023/03/02 11:15:31;;;;;;;26.53;16.87;;;;;;;;;;5050919;28;20425;-80
2023/03/02 11:18:01;;;;;;;24.90;17.60;;;;;;;;;;5056481;28;20425;-81
2023/03/02 11:20:30;;;;;;;28.75;18.88;;;;;;;;;;5056942;28;20419;-80
2023/03/02 11:23:05;;;;;;;27.80;17.75;;;;;;;;;;5051494;28;20437;-81
2023/03/02 11:25:34;;;;;;;26.83;17.83;;;;;;;;;;5056454;28;20521;-80
2023/03/02 11:28:04;;;;;;;25.60;16.88;;;;;;;;;;5058345;28;20912;-79
2023/03/02 11:30:41;;;;;;;27.52;17.58;;;;;;;;;;5055491;28;20418;-81
2023/03/02 11:33:11;;;;;;;23.60;17.30;;;;;;;;;;5061286;28;20434;-83
2023/03/02 11:35:42;;;;;;;22.80;15.57;;;;;;;;;;5061482;28;20467;-79
2023/03/02 11:38:14;;;;;;;25.40;16.70;;;;;;;;;;5060829;28;20425;-83
2023/03/02 11:40:44;;;;;;;26.73;17.60;;;;;;;;;;5062010;28;20425;-82
2023/03/02 11:43:12;;;;;;;25.85;16.33;;;;;;;;;;5061707;28;20808;-81
2023/03/02 11:45:42;;;;;;;25.80;16.45;;;;;;;;;;5058694;28;20434;-82
2023/03/02 11:48:12;;;;;;;26.35;16.30;;;;;;;;;;5059541;28;20431;-81
2023/03/02 11:50:43;;;;;;;21.88;14.52;;;;;;;;;;5059541;28;20424;-81
2023/03/02 11:53:13;;;;;;;21.90;14.60;;;;;;;;;;5058083;28;20440;-82
2023/03/02 11:55:42;;;;;;;21.30;14.02;;;;;;;;;;5059556;28;20429;-81
2023/03/02 11:58:12;;;;;;;20.70;14.15;;;;;;;;;;5061619;28;20465;-82
2023/03/02 12:00:39;;;;;;;21.30;14.52;;;;;;;;;;5060050;28;20421;-82
2023/03/02 12:03:18;;;;;;;21.33;14.10;;;;;;;;;;5056086;28;20922;-82
2023/03/02 12:05:46;;;;;;;18.20;12.52;;;;;;;;;;5050119;28;20468;-81
2023/03/02 12:08:27;;;;;;;19.55;12.80;;;;;;;;;;5058979;28;20433;-81
2023/03/02 12:10:58;;;;;;;19.52;13.00;;;;;;;;;;5059194;28;20417;-81
2023/03/02 12:13:27;;;;;;;19.27;13.50;;;;;;;;;;5056554;28;20431;-81
2023/03/02 12:15:55;;;;;;;18.77;12.68;;;;;;;;;;5051028;28;20495;-81
2023/03/02 12:18:28;;;;;;;18.83;13.32;;;;;;;;;;5056832;28;20922;-81
2023/03/02 12:20:58;;;;;;;17.25;12.00;;;;;;;;;;5058560;28;20430;-80
2023/03/02 12:23:25;;;;;;;18.65;12.15;;;;;;;;;;5058473;28;20427;-80
2023/03/02 12:26:03;;;;;;;18.38;12.40;;;;;;;;;;5061890;28;20431;-80
2023/03/02 12:28:31;;;;;;;20.30;13.30;;;;;;;;;;5059390;28;20426;-84
2023/03/02 12:31:06;;;;;;;20.70;13.48;;;;;;;;;;5060913;28;20934;-81
2023/03/02 12:33:32;;;;;;;17.90;12.30;;;;;;;;;;5057346;28;20425;-80
2023/03/02 12:36:10;;;;;;;16.63;11.68;;;;;;;;;;5057062;28;20429;-82
2023/03/02 12:38:38;;;;;;;16.98;12.20;;;;;;;;;;5056647;28;20427;-82
2023/03/02 12:41:18;;;;;;;17.83;12.75;;;;;;;;;;5060084;28;20524;-80
2023/03/02 12:43:47;;;;;;;17.80;11.98;;;;;;;;;;5059291;28;20413;-81
2023/03/02 12:46:33;;;;;;;16.90;11.95;;;;;;;;;;5058744;28;20914;-82
2023/03/02 12:49:03;;;;;;;16.92;11.35;;;;;;;;;;5060132;28;20410;-81
2023/03/02 12:51:30;;;;;;;14.90;10.90;;;;;;;;;;5058091;28;20504;-81
2023/03/02 12:54:08;;;;;;;18.70;11.80;;;;;;;;;;5059004;28;20419;-82
2023/03/02 12:56:35;;;;;;;17.30;10.75;;;;;;;;;;5056876;28;20444;-79
2023/03/02 12:59:02;;;;;;;16.42;11.13;;;;;;;;;;5058103;28;20408;-80
2023/03/02 13:01:29;;;;;;;17.25;11.75;;;;;;;;;;5057774;28;20946;-82
2023/03/02 13:03:56;;;;;;;17.50;11.93;;;;;;;;;;5045730;28;20408;-80
2023/03/02 13:06:24;;;;;;;17.40;11.60;;;;;;;;;;5055187;28;20421;-82
2023/03/02 13:08:52;;;;;;;17.20;11.13;;;;;;;;;;5053736;28;20932;-81
2023/03/02 13:11:21;;;;;;;17.00;10.95;;;;;;;;;;5057066;28;20427;-81
2023/03/02 13:13:49;;;;;;;17.35;11.43;;;;;;;;;;5056547;28;20409;-83
2023/03/02 13:16:21;;;;;;;16.50;11.10;;;;;;;;;;5058687;28;20794;-82
2023/03/02 13:18:52;;;;;;;17.10;11.32;;;;;;;;;;5038162;28;20430;-81
2023/03/02 13:21:19;;;;;;;14.68;10.60;;;;;;;;;;5054814;28;20434;-81
2023/03/02 13:23:46;;;;;;;16.02;12.18;;;;;;;;;;5061170;28;20425;-81
2023/03/02 13:26:25;;;;;;;17.35;12.15;;;;;;;;;;5058387;28;20460;-81
2023/03/02 13:29:01;;;;;;;16.00;11.00;;;;;;;;;;5053008;28;20755;-81
2023/03/02 13:31:28;;;;;;;16.07;10.80;;;;;;;;;;5058735;28;20437;-81
2023/03/02 13:33:55;;;;;;;16.45;11.50;;;;;;;;;;5052169;28;20425;-81
2023/03/02 13:36:23;;;;;;;15.13;11.30;;;;;;;;;;5052361;28;20433;-81
2023/03/02 13:38:52;;;;;;;15.77;10.77;;;;;;;;;;5057317;28;20582;-81
2023/03/02 13:41:21;;;;;;;15.68;11.00;;;;;;;;;;5058146;28;20431;-81
2023/03/02 13:43:48;;;;;;;13.70;10.00;;;;;;;;;;5055435;28;20410;-81
2023/03/02 13:46:27;;;;;;;14.03;9.97;;;;;;;;;;5054602;28;20425;-81
2023/03/02 13:48:54;;;;;;;15.15;11.05;;;;;;;;;;5056376;28;20803;-80
2023/03/02 13:51:22;;;;;;;14.95;10.52;;;;;;;;;;5056185;28;20430;-80
2023/03/02 13:53:51;;;;;;;15.90;10.60;;;;;;;;;;5055445;28;20425;-80
2023/03/02 13:56:18;;;;;;;14.15;10.00;;;;;;;;;;5059442;28;20931;-80
2023/03/02 13:58:46;;;;;;;13.55;10.10;;;;;;;;;;5055908;28;20404;-80
2023/03/02 14:01:12;;;;;;;14.63;10.65;;;;;;;;;;5055860;28;20425;-81
2023/03/02 14:03:40;;;;;;;15.48;10.43;;;;;;;;;;5054730;28;20460;-81
2023/03/02 14:06:08;;;;;;;15.70;10.95;;;;;;;;;;5054023;28;20425;-80
2023/03/02 14:08:34;;;;;;;14.33;10.63;;;;;;;;;;5055873;28;20973;-80
2023/03/02 14:11:02;;;;;;;15.63;10.80;;;;;;;;;;5056869;28;20446;-80
2023/03/02 14:13:30;;;;;;;14.85;10.75;;;;;;;;;;5059092;28;20455;-81
2023/03/02 14:15:57;;;;;;;16.27;11.00;;;;;;;;;;5058669;28;20439;-81
2023/03/02 14:18:29;;;;;;;18.00;11.10;;;;;;;;;;5058667;28;20439;-80
2023/03/02 14:20:57;;;;;;;14.57;10.50;;;;;;;;;;5059736;28;20436;-80
2023/03/02 14:23:24;;;;;;;16.00;11.30;;;;;;;;;;5055100;28;20461;-80